Time;durP1;ratioP1;P1;durP2;ratioP2;P2;SDS_P1;SDS_P2;PMS_P1;PMS_P2;Temp;Humidity;BMP_temperature;BMP_pressure;BME280_temperature;BME280_humidity;BME280_pressure;Samples;Min_cycle;Max_cycle;Signal;HPM_P1;HPM_P2
2022/03/27 00:02:57;;;;;;;;;;;;;;;;;;;;;
2022/03/27 00:09:28;;;;;;;11.85;8.13;;;;;;;7.83;87.03;102527.97;5019351;28;20050;-86
2022/03/27 00:15:04;;;;;;;11.80;8.48;;;;;;;7.64;87.62;102529.06;4995764;28;20715;-84
2022/03/27 00:17:54;;;;;;;10.60;8.80;;;;;;;7.68;87.87;102530.94;5008597;28;20056;-87
2022/03/27 00:20:27;;;;;;;12.82;10.40;;;;;;;7.64;87.55;102527.38;4991443;28;20050;-83
2022/03/27 00:22:54;;;;;;;16.15;8.57;;;;;;;7.62;87.69;102531.63;4970229;28;20052;-86
2022/03/27 00:28:37;;;;;;;12.45;8.90;;;;;;;7.62;87.29;102526.41;5005592;28;20185;-85
2022/03/27 00:31:08;;;;;;;13.35;8.82;;;;;;;7.58;87.13;102525.41;5004168;28;20128;-85
2022/03/27 00:33:36;;;;;;;12.23;8.57;;;;;;;7.58;87.27;102527.16;4987006;28;20045;-85
2022/03/27 00:36:06;;;;;;;10.07;8.82;;;;;;;7.59;87.30;102523.72;4978551;28;20059;-85
2022/03/27 00:38:39;;;;;;;15.63;9.10;;;;;;;7.58;87.22;102529.75;5003036;28;20061;-86
2022/03/27 00:41:08;;;;;;;13.60;9.93;;;;;;;7.57;87.10;102523.69;4978437;28;20042;-86
2022/03/27 00:43:39;;;;;;;13.65;8.55;;;;;;;7.58;87.12;102524.53;4968225;28;20137;-86
2022/03/27 00:46:39;;;;;;;12.70;8.23;;;;;;;7.59;86.75;102521.97;5005193;28;20037;-86
2022/03/27 00:49:07;;;;;;;13.73;8.73;;;;;;;7.60;87.13;102530.69;5007717;28;20057;-85
2022/03/27 00:55:22;;;;;;;13.18;9.30;;;;;;;7.59;86.98;102521.09;4986308;28;20090;-85
2022/03/27 00:58:04;;;;;;;14.07;9.70;;;;;;;7.56;87.04;102518.38;4949100;28;20459;-86
2022/03/27 01:00:49;;;;;;;14.85;9.52;;;;;;;7.50;87.16;102532.09;4989967;28;20046;-86
2022/03/27 01:03:26;;;;;;;15.70;10.43;;;;;;;7.51;87.19;102526.06;5003711;28;20073;-84
2022/03/27 01:06:10;;;;;;;14.57;10.68;;;;;;;7.52;87.37;102522.63;4980044;28;20168;-85
2022/03/27 01:11:34;;;;;;;20.08;10.93;;;;;;;7.52;87.18;102517.41;4986676;28;20646;-85
2022/03/27 01:14:02;;;;;;;22.15;11.63;;;;;;;7.49;87.13;102514.69;4980086;28;20042;-85
2022/03/27 01:16:56;;;;;;;17.45;11.13;;;;;;;7.49;87.43;102513.81;4971850;28;20034;-86
2022/03/27 01:19:23;;;;;;;20.38;12.43;;;;;;;7.45;87.56;102508.47;5001750;28;20094;-86
2022/03/27 01:24:42;;;;;;;17.65;11.18;;;;;;;7.45;87.44;102502.41;4987763;28;20077;-85
2022/03/27 01:27:09;;;;;;;19.40;12.27;;;;;;;7.44;87.48;102509.34;4969936;28;20043;-87
2022/03/27 01:30:00;;;;;;;22.35;13.77;;;;;;;7.45;87.42;102510.22;4953110;28;20109;-84
2022/03/27 01:36:04;;;;;;;26.35;14.75;;;;;;;7.42;87.71;102502.31;4970667;28;20176;-84
2022/03/27 01:38:32;;;;;;;25.20;14.85;;;;;;;7.41;87.45;102503.13;4974259;28;20061;-86
2022/03/27 01:41:08;;;;;;;29.73;17.33;;;;;;;7.40;87.55;102504.84;4974301;28;20070;-86
2022/03/27 01:43:38;;;;;;;25.55;15.68;;;;;;;7.39;87.66;102504.78;4968828;28;20044;-87
2022/03/27 01:46:06;;;;;;;26.00;15.75;;;;;;;7.41;88.00;102505.75;4974537;28;20050;-85
2022/03/27 01:48:33;;;;;;;26.42;16.33;;;;;;;7.40;88.00;102512.66;4976085;28;20038;-85
2022/03/27 01:51:06;;;;;;;24.65;15.40;;;;;;;7.39;88.56;102502.19;4989292;28;20054;-85
2022/03/27 01:53:34;;;;;;;26.67;16.73;;;;;;;7.33;88.25;102502.00;4984857;28;20685;-85
2022/03/27 01:56:01;;;;;;;25.08;14.40;;;;;;;7.28;88.41;102497.47;4981071;28;20049;-85
2022/03/27 01:58:28;;;;;;;25.58;15.82;;;;;;;7.28;88.77;102501.81;4954326;28;20069;-86
2022/03/27 02:00:54;;;;;;;25.08;15.23;;;;;;;7.29;89.14;102503.59;4954143;28;20053;-86
2022/03/27 02:03:22;;;;;;;27.08;16.40;;;;;;;7.28;89.02;102509.63;4970725;28;20519;-86
2022/03/27 02:05:50;;;;;;;23.63;14.20;;;;;;;7.30;88.70;102505.38;4966823;28;20068;-88
2022/03/27 02:08:19;;;;;;;27.30;16.20;;;;;;;7.34;88.71;102509.84;4975379;28;20054;-86
2022/03/27 02:10:49;;;;;;;32.95;17.92;;;;;;;7.37;88.31;102509.94;4962903;28;20054;-87
2022/03/27 02:13:21;;;;;;;29.42;17.65;;;;;;;7.37;88.29;102511.69;4969308;28;20122;-85
2022/03/27 02:15:50;;;;;;;27.20;16.77;;;;;;;7.38;88.26;102505.63;4969535;28;20048;-86
2022/03/27 02:18:21;;;;;;;29.90;17.75;;;;;;;7.40;87.97;102506.56;4967659;28;20080;-86
2022/03/27 02:20:52;;;;;;;29.30;17.13;;;;;;;7.39;88.09;102512.59;4970992;28;20066;-85
2022/03/27 02:23:28;;;;;;;30.13;17.30;;;;;;;7.38;88.81;102510.81;4979570;28;20069;-84
2022/03/27 02:25:56;;;;;;;30.88;16.33;;;;;;;7.36;88.27;102512.50;4969972;28;20035;-86
2022/03/27 02:28:26;;;;;;;26.92;16.05;;;;;;;7.34;88.47;102503.75;4971350;28;20042;-84
2022/03/27 02:30:54;;;;;;;31.33;18.40;;;;;;;7.35;88.59;102514.22;4977755;28;20077;-88
2022/03/27 02:33:22;;;;;;;27.67;17.90;;;;;;;7.35;88.46;102514.22;5002911;28;20054;-86
2022/03/27 02:35:49;;;;;;;28.77;17.17;;;;;;;7.33;88.14;102521.09;4969058;28;20074;-86
2022/03/27 02:38:17;;;;;;;32.17;17.30;;;;;;;7.32;88.49;102514.13;4971574;28;20039;-85
2022/03/27 02:40:52;;;;;;;32.03;16.70;;;;;;;7.33;88.54;102509.81;4977161;28;20046;-85
2022/03/27 02:43:19;;;;;;;30.98;19.15;;;;;;;7.31;88.53;102514.06;4976180;28;20050;-86
2022/03/27 02:45:50;;;;;;;29.55;17.27;;;;;;;7.30;88.54;102507.97;4973268;28;20071;-85
2022/03/27 02:48:17;;;;;;;30.50;18.30;;;;;;;7.28;88.55;102518.31;4979782;28;20149;-85
2022/03/27 02:50:44;;;;;;;37.60;18.83;;;;;;;7.28;88.79;102514.84;4981323;28;20054;-86
2022/03/27 02:53:14;;;;;;;28.35;17.95;;;;;;;7.22;89.11;102514.63;4981088;28;20042;-84
2022/03/27 02:55:44;;;;;;;27.20;15.82;;;;;;;7.18;89.35;102518.84;4976206;28;20078;-83
2022/03/27 02:58:14;;;;;;;25.17;16.27;;;;;;;7.19;89.05;102525.81;4962515;28;20046;-84
2022/03/27 03:00:42;;;;;;;25.02;14.38;;;;;;;7.16;89.34;102512.69;4996126;28;20046;-83
2022/03/27 03:03:17;;;;;;;28.38;15.82;;;;;;;7.13;89.67;102517.78;4961899;28;20061;-83
2022/03/27 03:05:44;;;;;;;28.48;15.63;;;;;;;7.06;89.90;102511.47;4973025;28;20468;-84
2022/03/27 03:08:12;;;;;;;26.35;14.27;;;;;;;7.03;89.94;102510.50;4963467;28;20061;-85
2022/03/27 03:10:43;;;;;;;28.38;15.40;;;;;;;6.99;90.75;102511.19;4980252;28;20046;-85
2022/03/27 03:13:10;;;;;;;26.92;13.27;;;;;;;6.96;90.82;102509.38;4997018;28;20039;-84
2022/03/27 03:15:42;;;;;;;25.15;13.32;;;;;;;6.95;90.58;102515.44;4958999;28;20480;-85
2022/03/27 03:18:11;;;;;;;25.60;13.93;;;;;;;6.95;90.58;102503.28;4958481;28;20645;-86
2022/03/27 03:20:39;;;;;;;24.35;14.50;;;;;;;6.94;91.04;102505.84;4983692;28;20445;-86
2022/03/27 03:23:06;;;;;;;29.08;14.48;;;;;;;6.90;91.19;102509.19;4998902;28;20040;-86
2022/03/27 03:25:36;;;;;;;26.30;14.90;;;;;;;6.90;91.60;102509.19;4954079;28;20492;-88
2022/03/27 03:28:06;;;;;;;28.10;14.98;;;;;;;6.90;91.96;102507.44;4968871;28;20620;-86
2022/03/27 03:30:38;;;;;;;24.33;14.27;;;;;;;6.91;91.79;102503.13;4971515;28;20535;-85
2022/03/27 03:33:05;;;;;;;25.92;14.73;;;;;;;6.92;91.75;102505.81;4976509;28;20137;-84
2022/03/27 03:35:32;;;;;;;29.25;15.05;;;;;;;6.92;91.90;102504.91;4969123;28;20121;-84
2022/03/27 03:38:06;;;;;;;27.65;14.50;;;;;;;6.88;91.95;102498.72;4959590;28;20042;-85
2022/03/27 03:40:35;;;;;;;20.75;13.13;;;;;;;6.88;92.54;102497.81;4971721;28;20130;-86
2022/03/27 03:43:02;;;;;;;27.52;14.73;;;;;;;6.83;92.94;102489.84;4941540;28;20104;-86
2022/03/27 03:45:37;;;;;;;27.80;15.60;;;;;;;6.77;93.18;102495.69;5009290;28;20386;-85
2022/03/27 03:48:15;;;;;;;28.63;17.33;;;;;;;6.73;93.71;102501.63;4966245;28;20133;-86
2022/03/27 03:50:42;;;;;;;34.13;15.90;;;;;;;6.74;93.96;102494.69;4942515;28;20136;-85
2022/03/27 03:53:08;;;;;;;28.70;16.00;;;;;;;6.71;94.65;102502.41;4973546;28;20041;-85
2022/03/27 03:55:37;;;;;;;36.67;16.73;;;;;;;6.65;95.18;102497.88;4957210;28;20420;-87
2022/03/27 03:58:07;;;;;;;28.73;15.38;;;;;;;6.63;94.95;102489.09;4978941;28;20999;-87
2022/03/27 04:00:34;;;;;;;34.65;18.15;;;;;;;6.62;95.17;102495.13;4982794;28;20508;-87
2022/03/27 04:03:04;;;;;;;40.58;18.80;;;;;;;6.61;95.44;102499.47;4976580;28;20047;-86
2022/03/27 04:05:36;;;;;;;43.15;19.35;;;;;;;6.60;95.84;102502.88;4970472;28;20503;-86
2022/03/27 04:08:03;;;;;;;35.35;17.58;;;;;;;6.59;95.99;102501.09;4977822;28;20042;-87
2022/03/27 04:10:31;;;;;;;35.00;17.63;;;;;;;6.61;95.76;102496.88;4959920;28;20346;-83
2022/03/27 04:12:59;;;;;;;35.65;17.65;;;;;;;6.60;96.30;102491.59;4974927;28;20052;-87
2022/03/27 04:15:30;;;;;;;40.65;17.30;;;;;;;6.60;96.26;102497.69;4957376;28;20049;-85
2022/03/27 04:18:00;;;;;;;35.85;18.60;;;;;;;6.64;96.24;102500.41;4973960;28;20034;-85
2022/03/27 04:20:27;;;;;;;41.13;19.13;;;;;;;6.66;96.37;102496.16;4954785;28;20051;-86
2022/03/27 04:22:54;;;;;;;42.70;18.55;;;;;;;6.66;96.06;102498.75;4987913;28;20101;-85
2022/03/27 04:25:22;;;;;;;41.55;20.55;;;;;;;6.64;96.52;102495.22;4969226;28;20125;-85
2022/03/27 04:27:49;;;;;;;45.45;21.00;;;;;;;6.61;96.59;102494.25;4953671;28;20051;-85
2022/03/27 04:30:16;;;;;;;45.92;20.27;;;;;;;6.58;96.64;102498.47;4962149;28;20042;-85
2022/03/27 04:32:44;;;;;;;46.50;19.27;;;;;;;6.55;96.89;102494.03;4976426;28;20539;-83
2022/03/27 04:35:13;;;;;;;38.17;19.65;;;;;;;6.54;96.86;102491.38;4958989;28;20133;-83
2022/03/27 04:37:47;;;;;;;43.38;20.13;;;;;;;6.57;97.34;102491.47;4975698;28;20161;-85
2022/03/27 04:40:16;;;;;;;46.58;20.40;;;;;;;6.56;97.14;102490.59;4991003;28;20433;-86
2022/03/27 04:42:43;;;;;;;41.03;20.25;;;;;;;6.57;97.19;102488.88;4977579;28;20050;-85
2022/03/27 04:47:54;;;;;;;47.50;20.73;;;;;;;6.51;97.40;102497.34;4968813;28;20050;-86
2022/03/27 04:50:21;;;;;;;55.05;21.80;;;;;;;6.46;97.79;102507.56;4999591;28;20045;-84
2022/03/27 04:52:47;;;;;;;54.47;21.52;;;;;;;6.45;98.37;102505.81;4962326;28;20042;-86
2022/03/27 04:55:15;;;;;;;46.83;19.13;;;;;;;6.44;98.24;102508.34;4954751;28;20058;-85
2022/03/27 04:57:44;;;;;;;44.83;20.65;;;;;;;6.42;98.57;102510.00;4962752;28;20109;-87
2022/03/27 05:00:15;;;;;;;37.80;19.35;;;;;;;6.44;98.39;102506.63;4987721;28;20832;-86
2022/03/27 05:02:44;;;;;;;34.10;17.58;;;;;;;6.48;98.10;102511.94;4986381;28;20046;-85
2022/03/27 05:05:13;;;;;;;40.47;18.02;;;;;;;6.50;98.17;102505.97;4956331;28;20046;-86
2022/03/27 05:07:42;;;;;;;43.15;19.20;;;;;;;6.53;98.17;102507.81;4956315;28;20056;-85
2022/03/27 05:10:10;;;;;;;38.08;18.05;;;;;;;6.52;98.42;102506.94;4976610;28;20058;-86
2022/03/27 05:12:39;;;;;;;40.58;19.45;;;;;;;6.53;98.32;102506.09;4971414;28;20052;-84
2022/03/27 05:15:38;;;;;;;47.13;19.40;;;;;;;6.53;98.46;102505.19;4987875;28;20038;-86
2022/03/27 05:18:10;;;;;;;38.80;18.00;;;;;;;6.50;97.94;102500.78;4959072;28;20050;-85
2022/03/27 05:20:44;;;;;;;36.15;17.27;;;;;;;6.50;98.61;102497.28;4987358;28;20046;-84
2022/03/27 05:23:11;;;;;;;34.13;18.15;;;;;;;6.43;98.28;102493.56;4982437;28;20153;-84
2022/03/27 05:25:42;;;;;;;47.80;20.95;;;;;;;6.43;98.92;102489.25;4956053;28;20054;-86
2022/03/27 05:28:11;;;;;;;39.28;18.52;;;;;;;6.39;98.55;102495.16;4968025;28;20056;-86
2022/03/27 05:30:39;;;;;;;42.45;20.48;;;;;;;6.36;99.15;102486.34;4957753;28;20495;-86
2022/03/27 05:33:06;;;;;;;36.03;17.08;;;;;;;6.33;99.77;102492.31;4981998;28;20041;-85
2022/03/27 05:35:34;;;;;;;38.05;18.67;;;;;;;6.36;99.98;102495.06;4952576;28;20057;-86
2022/03/27 05:38:01;;;;;;;34.28;18.27;;;;;;;6.36;100.00;102489.88;4968171;28;20054;-84
2022/03/27 05:40:29;;;;;;;42.72;21.00;;;;;;;6.34;100.00;102490.63;4986157;28;20485;-86
2022/03/27 05:43:00;;;;;;;40.00;21.65;;;;;;;6.28;100.00;102489.56;4955732;28;20065;-85
2022/03/27 05:45:27;;;;;;;41.90;18.77;;;;;;;6.27;100.00;102500.78;4971740;28;20639;-85
2022/03/27 05:47:54;;;;;;;48.47;21.88;;;;;;;6.29;100.00;102500.84;4952035;28;20923;-86
2022/03/27 05:50:23;;;;;;;40.85;20.92;;;;;;;6.31;100.00;102495.69;4969618;28;20096;-87
2022/03/27 05:52:52;;;;;;;38.20;19.08;;;;;;;6.33;100.00;102502.72;4939725;28;20556;-85
2022/03/27 05:55:27;;;;;;;39.10;19.15;;;;;;;6.36;100.00;102513.28;4952194;28;20549;-85
2022/03/27 05:58:00;;;;;;;38.83;16.60;;;;;;;6.39;100.00;102508.19;4949666;28;20066;-85
2022/03/27 06:00:29;;;;;;;39.80;17.27;;;;;;;6.44;100.00;102521.34;4950231;28;20069;-84
2022/03/27 06:02:59;;;;;;;37.17;19.65;;;;;;;6.47;100.00;102518.88;4967798;28;20140;-84
2022/03/27 06:05:26;;;;;;;36.20;18.58;;;;;;;6.48;100.00;102512.84;4932947;28;20429;-85
2022/03/27 06:07:58;;;;;;;39.97;18.27;;;;;;;6.53;100.00;102520.81;4953095;28;20055;-84
2022/03/27 06:10:32;;;;;;;33.50;16.50;;;;;;;6.58;100.00;102521.88;4949290;28;21881;-85
2022/03/27 06:13:04;;;;;;;31.90;16.52;;;;;;;6.65;100.00;102518.69;4956636;28;20042;-82
2022/03/27 06:15:33;;;;;;;31.10;15.10;;;;;;;6.69;100.00;102525.78;4939573;28;20046;-86
2022/03/27 06:18:00;;;;;;;30.67;17.55;;;;;;;6.64;100.00;102524.72;4941121;28;20318;-84
2022/03/27 06:20:42;;;;;;;29.98;16.23;;;;;;;6.59;100.00;102529.72;4939538;28;20141;-85
2022/03/27 06:23:10;;;;;;;29.63;16.83;;;;;;;6.56;100.00;102527.03;4976348;28;20031;-86
2022/03/27 06:25:38;;;;;;;27.00;15.50;;;;;;;6.53;100.00;102526.03;4944418;28;20404;-87
2022/03/27 06:28:07;;;;;;;29.95;15.55;;;;;;;6.51;100.00;102527.69;4961501;28;20046;-87
2022/03/27 06:30:35;;;;;;;26.42;15.48;;;;;;;6.50;100.00;102521.59;4963527;28;20061;-88
2022/03/27 06:33:05;;;;;;;29.48;16.80;;;;;;;6.52;100.00;102535.56;4951773;28;20046;-86
2022/03/27 06:35:37;;;;;;;23.77;13.82;;;;;;;6.53;100.00;102534.72;4965383;28;20034;-86
2022/03/27 06:38:05;;;;;;;23.92;14.45;;;;;;;6.56;100.00;102533.97;4948985;28;20042;-85
2022/03/27 06:40:32;;;;;;;24.00;14.13;;;;;;;6.58;100.00;102541.00;4966610;28;20050;-82
2022/03/27 06:42:59;;;;;;;24.60;14.57;;;;;;;6.57;100.00;102539.22;4955349;28;20038;-84
2022/03/27 06:45:26;;;;;;;27.35;15.93;;;;;;;6.61;100.00;102545.44;4973310;28;20039;-82
2022/03/27 06:47:53;;;;;;;30.08;15.57;;;;;;;6.60;100.00;102538.44;4995593;28;20043;-88
2022/03/27 06:50:22;;;;;;;27.70;15.20;;;;;;;6.59;100.00;102540.16;4957010;28;20051;-86
2022/03/27 06:52:52;;;;;;;25.80;14.85;;;;;;;6.58;100.00;102538.41;4967067;28;20053;-89
2022/03/27 06:55:20;;;;;;;28.45;15.15;;;;;;;6.62;100.00;102539.38;4984940;28;20117;-84
2022/03/27 06:57:47;;;;;;;28.55;15.82;;;;;;;6.66;100.00;102541.25;4974454;28;20047;-84
2022/03/27 07:03:06;;;;;;;27.33;14.75;;;;;;;6.59;100.00;102545.34;4972821;28;20113;-86
2022/03/27 07:05:49;;;;;;;25.00;15.25;;;;;;;6.61;100.00;102542.84;4975197;28;20078;-86
2022/03/27 07:08:19;;;;;;;32.00;16.58;;;;;;;6.61;100.00;102540.22;4992812;28;20052;-84
2022/03/27 07:10:49;;;;;;;29.05;15.05;;;;;;;6.62;100.00;102552.38;4955401;28;20074;-85
2022/03/27 07:13:18;;;;;;;25.70;14.85;;;;;;;6.67;100.00;102547.38;4953942;28;20046;-82
2022/03/27 07:15:48;;;;;;;26.83;14.20;;;;;;;6.67;100.00;102548.25;4966395;28;20132;-85
2022/03/27 07:18:16;;;;;;;22.95;12.82;;;;;;;6.75;100.00;102559.84;4980675;28;20046;-87
2022/03/27 07:20:47;;;;;;;21.00;13.27;;;;;;;6.85;100.00;102558.47;4981815;28;20100;-85
2022/03/27 07:23:25;;;;;;;26.80;12.48;;;;;;;6.92;100.00;102549.16;4992026;28;20054;-86
2022/03/27 07:25:56;;;;;;;26.25;14.20;;;;;;;7.01;99.55;102556.44;4998573;28;20057;-86
2022/03/27 07:32:12;;;;;;;26.60;13.80;;;;;;;7.12;99.11;102557.72;4954149;28;20152;-88
2022/03/27 07:34:40;;;;;;;25.00;14.07;;;;;;;7.19;98.60;102551.88;4974404;28;20102;-86
2022/03/27 07:37:08;;;;;;;25.80;14.88;;;;;;;7.20;98.03;102550.16;4969742;28;20050;-85
2022/03/27 07:39:37;;;;;;;22.00;13.18;;;;;;;7.19;97.99;102544.06;4987117;28;20062;-84
2022/03/27 07:44:55;;;;;;;20.05;11.85;;;;;;;7.36;97.23;102547.25;4971455;28;20042;-85
2022/03/27 07:47:32;;;;;;;20.65;11.88;;;;;;;7.44;96.94;102558.84;4973718;28;20077;-85
2022/03/27 07:50:00;;;;;;;16.33;10.88;;;;;;;7.48;95.74;102554.59;4985575;28;20669;-87
2022/03/27 07:52:28;;;;;;;20.50;11.02;;;;;;;7.47;95.48;102565.88;4953738;28;20053;-87
2022/03/27 07:54:56;;;;;;;20.10;11.98;;;;;;;7.49;95.21;102560.72;4964720;28;20087;-85
2022/03/27 07:57:30;;;;;;;19.00;12.07;;;;;;;7.51;94.95;102559.03;4966864;28;20042;-84
2022/03/27 08:00:03;;;;;;;20.92;11.38;;;;;;;7.54;94.67;102561.75;4960063;28;20046;-86
2022/03/27 08:02:30;;;;;;;19.08;11.25;;;;;;;7.59;94.42;102574.13;4942157;28;20054;-84
2022/03/27 08:04:58;;;;;;;18.58;10.40;;;;;;;7.64;93.46;102570.78;4947233;28;20070;-87
2022/03/27 08:07:26;;;;;;;15.32;9.82;;;;;;;7.72;93.42;102564.13;4952589;28;20057;-89
2022/03/27 08:09:54;;;;;;;15.85;9.80;;;;;;;7.80;92.68;102564.38;4934208;28;20576;-84
2022/03/27 08:12:23;;;;;;;14.45;9.20;;;;;;;7.94;92.26;102557.91;4944372;28;20130;-83
2022/03/27 08:14:50;;;;;;;19.77;10.80;;;;;;;8.08;90.20;102556.63;4931819;28;20545;-86
2022/03/27 08:17:18;;;;;;;14.38;8.98;;;;;;;8.16;89.84;102550.75;4950798;28;20050;-87
2022/03/27 08:19:47;;;;;;;14.98;9.60;;;;;;;8.26;88.83;102555.41;4930385;28;20053;-88
2022/03/27 08:22:20;;;;;;;16.63;9.15;;;;;;;8.33;87.71;102556.47;4936699;28;20047;-85
2022/03/27 08:24:50;;;;;;;15.18;9.10;;;;;;;8.40;87.18;102554.09;4949503;28;20058;-89
2022/03/27 08:27:16;;;;;;;18.23;10.38;;;;;;;8.49;86.12;102563.13;4936953;28;20049;-85
2022/03/27 08:29:47;;;;;;;15.65;10.85;;;;;;;8.50;85.44;102563.16;4974543;28;20129;-87
2022/03/27 08:35:08;;;;;;;12.65;8.70;;;;;;;8.66;85.16;102574.94;4984874;28;20059;-87
2022/03/27 08:37:42;;;;;;;14.43;10.13;;;;;;;8.76;83.90;102570.84;4988927;23;20119;-85
2022/03/27 08:40:10;;;;;;;12.63;8.88;;;;;;;8.81;83.41;102574.50;4979800;28;20169;-83
2022/03/27 08:42:36;;;;;;;16.88;10.07;;;;;;;8.88;82.76;102579.06;4980032;28;20058;-82
2022/03/27 08:45:03;;;;;;;15.32;10.68;;;;;;;8.86;82.55;102580.72;4965581;28;20133;-85
2022/03/27 08:47:31;;;;;;;18.42;10.40;;;;;;;8.86;82.05;102585.09;4999743;28;20098;-84
2022/03/27 08:50:34;;;;;;;14.77;8.98;;;;;;;8.84;81.87;102590.28;4968221;28;20046;-83
2022/03/27 08:53:07;;;;;;;13.50;9.50;;;;;;;8.75;81.07;102580.44;4995308;28;20038;-84
2022/03/27 08:55:56;;;;;;;12.25;8.07;;;;;;;8.76;81.30;102578.69;4981157;28;20093;-84
2022/03/27 08:58:45;;;;;;;12.80;8.50;;;;;;;8.82;81.13;102581.50;4983677;28;20081;-85
2022/03/27 09:01:12;;;;;;;13.45;8.73;;;;;;;8.93;81.07;102581.81;4980049;28;20042;-85
2022/03/27 09:03:39;;;;;;;13.85;9.27;;;;;;;9.01;80.10;102580.31;4963092;28;20061;-85
2022/03/27 09:06:08;;;;;;;12.88;8.82;;;;;;;9.11;78.57;102581.44;4977656;28;20038;-85
2022/03/27 09:08:36;;;;;;;13.02;8.05;;;;;;;9.11;77.93;102578.81;4999129;28;20073;-83
2022/03/27 09:11:03;;;;;;;15.60;9.27;;;;;;;9.10;78.40;102582.31;4976675;28;20050;-84
2022/03/27 09:13:32;;;;;;;16.92;9.65;;;;;;;9.10;76.73;102587.53;4985832;28;20042;-85
2022/03/27 09:16:10;;;;;;;11.23;8.27;;;;;;;8.91;77.80;102584.38;4989464;28;20038;-84
2022/03/27 09:18:55;;;;;;;12.50;7.93;;;;;;;8.94;77.54;102586.19;4979356;28;20042;-84
2022/03/27 09:21:24;;;;;;;12.02;7.80;;;;;;;9.13;77.57;102582.38;4973597;28;20080;-86
2022/03/27 09:24:08;;;;;;;15.02;9.32;;;;;;;9.40;76.63;102579.63;4989309;28;20047;-85
2022/03/27 09:26:37;;;;;;;15.60;10.02;;;;;;;9.55;75.11;102579.16;4973842;28;20125;-83
2022/03/27 09:29:10;;;;;;;12.80;9.00;;;;;;;9.54;75.28;102573.88;4977556;28;20050;-82
2022/03/27 09:31:40;;;;;;;13.73;9.20;;;;;;;9.53;75.06;102578.25;4976208;28;20447;-86
2022/03/27 09:34:09;;;;;;;15.10;9.90;;;;;;;9.60;75.27;102563.59;4990115;28;20045;-84
2022/03/27 09:36:46;;;;;;;15.15;9.25;;;;;;;9.75;75.28;102571.84;4987460;28;20050;-84
2022/03/27 09:42:01;;;;;;;11.80;7.97;;;;;;;9.96;74.13;102574.94;4992243;28;20046;-84
2022/03/27 09:44:36;;;;;;;12.32;9.07;;;;;;;9.97;74.14;102574.09;4985207;28;20077;-83
2022/03/27 09:47:10;;;;;;;13.00;9.02;;;;;;;9.83;74.25;102574.66;4980785;28;21388;-84
2022/03/27 09:49:37;;;;;;;16.40;10.13;;;;;;;9.80;74.41;102569.31;4977791;28;21365;-83
2022/03/27 09:52:19;;;;;;;13.57;9.35;;;;;;;9.90;74.02;102562.59;5006156;28;20082;-85
2022/03/27 09:55:07;;;;;;;15.80;10.27;;;;;;;10.07;73.19;102557.78;4974303;28;20074;-85
2022/03/27 09:57:38;;;;;;;12.73;9.48;;;;;;;10.27;72.11;102566.97;4978111;28;20054;-86
2022/03/27 10:00:18;;;;;;;12.88;9.20;;;;;;;10.41;70.81;102553.34;4979492;28;20058;-84
2022/03/27 10:02:51;;;;;;;13.90;9.75;;;;;;;10.50;70.35;102547.44;4989837;28;20777;-84
2022/03/27 10:05:22;;;;;;;12.32;8.95;;;;;;;10.54;70.01;102542.28;4984749;28;20054;-86
2022/03/27 10:07:52;;;;;;;14.45;9.18;;;;;;;10.70;69.67;102546.13;4954675;28;20110;-86
2022/03/27 10:10:45;;;;;;;12.38;8.68;;;;;;;10.91;68.92;102540.44;4983512;28;20188;-86
2022/03/27 10:13:56;;;;;;;14.35;9.48;;;;;;;11.09;67.80;102536.41;4966616;28;20058;-85
2022/03/27 10:16:39;;;;;;;12.98;9.93;;;;;;;11.24;67.03;102538.44;4990552;28;20042;-84
2022/03/27 10:19:26;;;;;;;16.52;10.63;;;;;;;11.22;67.18;102530.56;4965956;28;20146;-86
2022/03/27 10:21:55;;;;;;;13.48;9.80;;;;;;;11.38;66.10;102528.19;4979691;28;20078;-85
2022/03/27 10:24:30;;;;;;;12.13;8.75;;;;;;;11.86;65.46;102535.16;4974342;28;20043;-86
2022/03/27 10:27:02;;;;;;;12.90;9.20;;;;;;;12.76;63.83;102522.38;4981026;28;20161;-86
2022/03/27 10:29:30;;;;;;;15.63;10.30;;;;;;;14.30;59.51;102507.97;4982912;28;20052;-83
2022/03/27 10:31:59;;;;;;;14.07;10.07;;;;;;;15.42;53.76;102503.91;4981844;28;20619;-84
2022/03/27 10:34:27;;;;;;;14.00;9.88;;;;;;;16.19;51.94;102505.63;4983049;28;20133;-85
2022/03/27 10:37:13;;;;;;;14.98;10.02;;;;;;;17.45;49.57;102500.56;4985399;28;20200;-85
2022/03/27 10:40:01;;;;;;;14.73;10.15;;;;;;;18.75;44.60;102504.50;4965029;28;20184;-86
2022/03/27 10:42:46;;;;;;;12.15;9.32;;;;;;;18.01;45.18;102508.91;4968446;28;20066;-86
2022/03/27 10:45:19;;;;;;;14.77;9.77;;;;;;;17.29;47.99;102510.41;4968910;28;20050;-85
2022/03/27 10:48:37;;;;;;;11.75;9.75;;;;;;;17.03;48.43;102522.03;4974806;28;20145;-85
2022/03/27 10:51:03;;;;;;;11.27;9.85;;;;;;;17.98;47.76;102520.41;4960857;28;20426;-85
2022/03/27 10:53:32;;;;;;;11.40;8.68;;;;;;;18.93;45.03;102512.25;4934524;28;20474;-83
2022/03/27 10:55:59;;;;;;;9.98;8.82;;;;;;;19.59;43.86;102505.00;4966809;28;20081;-84
2022/03/27 10:58:42;;;;;;;9.35;8.35;;;;;;;19.60;42.77;102500.56;4980982;28;20109;-84
2022/03/27 11:01:28;;;;;;;10.27;9.18;;;;;;;19.85;41.86;102497.50;4981391;28;20050;-86
2022/03/27 11:04:06;;;;;;;11.85;9.77;;;;;;;20.98;40.28;102499.59;4993875;28;20038;-84
2022/03/27 11:06:42;;;;;;;12.15;9.85;;;;;;;22.08;38.19;102488.84;4976224;28;20048;-85
2022/03/27 11:09:39;;;;;;;10.18;8.88;;;;;;;23.13;37.08;102488.38;4991129;28;20054;-85
2022/03/27 11:12:31;;;;;;;10.15;9.05;;;;;;;24.37;35.01;102481.41;4977666;28;20054;-86
2022/03/27 11:15:07;;;;;;;12.73;9.02;;;;;;;25.32;33.40;102485.69;4972016;28;20057;-84
2022/03/27 11:17:45;;;;;;;9.85;8.95;;;;;;;26.17;31.89;102484.75;4998324;28;20161;-86
2022/03/27 11:20:24;;;;;;;10.88;9.45;;;;;;;26.34;29.75;102481.28;4994090;28;20039;-85
2022/03/27 11:23:08;;;;;;;9.52;8.68;;;;;;;26.63;29.81;102473.63;5009916;28;20053;-84
2022/03/27 11:25:46;;;;;;;12.75;9.82;;;;;;;26.71;29.23;102469.66;4980995;28;20046;-86
2022/03/27 11:28:20;;;;;;;10.32;9.32;;;;;;;27.05;28.16;102470.69;4989347;28;20051;-85
2022/03/27 11:30:56;;;;;;;8.98;8.15;;;;;;;27.28;28.63;102462.41;4974266;28;20157;-86
2022/03/27 11:33:32;;;;;;;8.25;7.53;;;;;;;27.73;27.84;102461.00;4989952;28;20047;-85
2022/03/27 11:36:02;;;;;;;10.52;9.43;;;;;;;28.10;26.26;102455.47;4966946;28;20176;-84
2022/03/27 11:39:04;;;;;;;10.93;9.73;;;;;;;27.79;26.04;102455.28;4982590;28;20068;-85
2022/03/27 11:41:49;;;;;;;10.18;9.10;;;;;;;28.08;26.25;102450.16;4972583;28;20141;-88
2022/03/27 11:47:37;;;;;;;9.18;8.30;;;;;;;28.42;25.01;102426.75;4979095;28;20529;-84
2022/03/27 11:50:06;;;;;;;9.20;8.30;;;;;;;28.91;25.07;102427.59;4963308;28;20121;-85
2022/03/27 11:52:33;;;;;;;8.52;7.60;;;;;;;28.76;24.86;102426.66;4945077;28;20047;-84
2022/03/27 11:55:10;;;;;;;9.85;8.63;;;;;;;28.49;24.10;102432.66;4931537;28;20576;-85
2022/03/27 11:57:51;;;;;;;10.75;9.65;;;;;;;28.41;24.38;102427.69;4965628;28;20445;-84
2022/03/27 12:00:44;;;;;;;9.38;8.52;;;;;;;28.83;23.84;102428.03;4965083;28;20055;-85
2022/03/27 12:03:22;;;;;;;10.88;9.77;;;;;;;29.43;23.36;102435.28;4973570;28;20055;-85
2022/03/27 12:05:52;;;;;;;9.13;8.23;;;;;;;29.99;23.49;102419.22;4986077;28;20070;-85
2022/03/27 12:08:36;;;;;;;9.75;8.85;;;;;;;30.40;22.35;102422.03;4963236;28;20043;-86
2022/03/27 12:11:08;;;;;;;9.02;8.23;;;;;;;30.57;22.76;102415.56;4958898;28;20054;-86
2022/03/27 12:13:50;;;;;;;9.27;8.48;;;;;;;30.78;22.29;102413.25;4962141;28;20019;-84
2022/03/27 12:16:23;;;;;;;;;;;;;;;30.65;21.05;102405.09;4977038;28;20043;-84
2022/03/27 12:18:55;;;;;;;8.40;7.72;;;;;;;30.45;22.41;102404.56;4961633;28;19953;-86
2022/03/27 12:21:22;;;;;;;9.45;8.52;;;;;;;30.13;22.53;102407.53;4969913;28;20055;-85
2022/03/27 12:24:03;;;;;;;10.20;9.20;;;;;;;29.95;22.35;102409.59;4957834;28;20133;-87
2022/03/27 12:29:49;;;;;;;9.65;8.75;;;;;;;29.98;22.09;102393.19;4971504;28;20150;-85
2022/03/27 12:32:25;;;;;;;9.13;8.23;;;;;;;29.83;22.42;102391.47;4955108;28;20381;-86